Time;durP1;ratioP1;P1;durP2;ratioP2;P2;SDS_P1;SDS_P2;PMS_P1;PMS_P2;Temp;Humidity;BMP_temperature;BMP_pressure;BME280_temperature;BME280_humidity;BME280_pressure;Samples;Min_cycle;Max_cycle;Signal;HPM_P1;HPM_P2
2023/12/20 00:04:29;;;;;;;0.50;0.50;;;;;;;;;;10402891;28;20582;-75
2023/12/20 00:09:32;;;;;;;0.40;0.40;;;;;;;;;;10399515;28;20053;-75
2023/12/20 00:14:36;;;;;;;0.40;0.40;;;;;;;;;;10402860;28;20045;-75
2023/12/20 00:19:40;;;;;;;0.65;0.57;;;;;;;;;;10401672;28;20033;-75
2023/12/20 00:24:43;;;;;;;0.55;0.50;;;;;;;;;;10400585;28;20045;-75
2023/12/20 00:29:49;;;;;;;0.40;0.40;;;;;;;;;;10394862;28;20506;-75
2023/12/20 00:34:53;;;;;;;0.50;0.40;;;;;;;;;;10390500;28;20060;-75
2023/12/20 00:39:56;;;;;;;0.40;0.40;;;;;;;;;;10394398;28;20042;-75
2023/12/20 00:45:01;;;;;;;0.73;0.57;;;;;;;;;;10399506;28;20046;-75
2023/12/20 00:50:05;;;;;;;0.50;0.50;;;;;;;;;;10404209;28;20128;-75
2023/12/20 00:55:08;;;;;;;0.65;0.65;;;;;;;;;;10396296;28;20048;-75
2023/12/20 01:00:14;;;;;;;0.55;0.55;;;;;;;;;;10404081;28;20155;-75
2023/12/20 01:05:19;;;;;;;1.13;0.60;;;;;;;;;;10403788;28;20053;-75
2023/12/20 01:10:22;;;;;;;0.47;0.47;;;;;;;;;;10400878;28;20484;-75
2023/12/20 01:15:27;;;;;;;0.40;0.40;;;;;;;;;;10402691;28;20056;-75
2023/12/20 01:20:30;;;;;;;0.98;0.60;;;;;;;;;;10401103;28;20042;-75
2023/12/20 01:25:33;;;;;;;0.47;0.47;;;;;;;;;;10389743;28;20537;-75
2023/12/20 01:30:38;;;;;;;0.40;0.40;;;;;;;;;;10402087;28;20705;-75
2023/12/20 01:35:41;;;;;;;0.40;0.40;;;;;;;;;;10405635;28;20049;-75
2023/12/20 01:40:44;;;;;;;1.65;0.50;;;;;;;;;;10402247;28;20041;-75
2023/12/20 01:45:49;;;;;;;0.52;0.52;;;;;;;;;;10398765;28;20056;-75
2023/12/20 01:50:53;;;;;;;0.38;0.38;;;;;;;;;;10402685;28;20048;-75
2023/12/20 01:55:58;;;;;;;0.60;0.60;;;;;;;;;;10407904;28;20049;-75
2023/12/20 02:01:03;;;;;;;0.38;0.38;;;;;;;;;;10400078;28;20045;-75
2023/12/20 02:06:07;;;;;;;0.45;0.45;;;;;;;;;;10401743;28;20045;-75
2023/12/20 02:11:11;;;;;;;0.30;0.30;;;;;;;;;;10397245;28;20043;-75
2023/12/20 02:16:15;;;;;;;0.43;0.43;;;;;;;;;;10394612;28;20060;-75
2023/12/20 02:21:18;;;;;;;0.50;0.50;;;;;;;;;;10401298;28;20048;-75
2023/12/20 02:26:23;;;;;;;0.50;0.50;;;;;;;;;;10400537;28;20049;-75
2023/12/20 02:31:26;;;;;;;0.50;0.50;;;;;;;;;;10400026;28;20556;-75
2023/12/20 02:36:30;;;;;;;0.50;0.50;;;;;;;;;;10405692;28;20047;-75
2023/12/20 02:41:34;;;;;;;0.60;0.60;;;;;;;;;;10404795;28;20882;-75
2023/12/20 02:46:37;;;;;;;0.60;0.50;;;;;;;;;;10401152;28;20045;-75
2023/12/20 02:51:41;;;;;;;0.70;0.63;;;;;;;;;;10400833;28;20506;-75
2023/12/20 02:56:45;;;;;;;0.88;0.85;;;;;;;;;;10394588;28;20542;-75
2023/12/20 03:01:48;;;;;;;0.70;0.70;;;;;;;;;;10403438;28;20048;-75
2023/12/20 03:06:52;;;;;;;0.80;0.80;;;;;;;;;;10401477;28;20107;-75
2023/12/20 03:11:56;;;;;;;0.90;0.60;;;;;;;;;;10401028;28;20644;-75
2023/12/20 03:16:59;;;;;;;1.58;0.70;;;;;;;;;;10404488;28;20041;-75
2023/12/20 03:22:03;;;;;;;1.08;0.63;;;;;;;;;;10401384;28;20095;-75
2023/12/20 03:27:07;;;;;;;0.57;0.57;;;;;;;;;;10397559;28;20487;-75
2023/12/20 03:32:11;;;;;;;0.73;0.63;;;;;;;;;;10401981;28;20053;-75
2023/12/20 03:37:14;;;;;;;0.88;0.80;;;;;;;;;;10402375;28;20036;-75
2023/12/20 03:42:18;;;;;;;4.63;0.85;;;;;;;;;;10401867;28;20144;-75
2023/12/20 03:47:22;;;;;;;0.93;0.88;;;;;;;;;;10393938;28;20049;-75
2023/12/20 03:52:25;;;;;;;1.10;0.80;;;;;;;;;;10402830;28;20087;-75
2023/12/20 03:57:30;;;;;;;1.00;0.90;;;;;;;;;;10402077;28;20053;-74
2023/12/20 04:02:33;;;;;;;1.58;0.90;;;;;;;;;;10397771;28;20033;-75
2023/12/20 04:07:36;;;;;;;1.10;1.00;;;;;;;;;;10401063;28;20143;-75
2023/12/20 04:12:41;;;;;;;2.60;1.08;;;;;;;;;;10401258;28;20129;-75
2023/12/20 04:17:44;;;;;;;6.05;1.30;;;;;;;;;;10395917;28;20635;-75
2023/12/20 04:22:48;;;;;;;4.18;1.75;;;;;;;;;;10399498;28;20044;-74
2023/12/20 04:27:52;;;;;;;3.55;1.10;;;;;;;;;;10395963;28;20072;-75
2023/12/20 04:32:56;;;;;;;3.97;1.38;;;;;;;;;;10403063;28;20042;-74
2023/12/20 04:38:00;;;;;;;3.45;1.30;;;;;;;;;;10399762;28;20471;-75
2023/12/20 04:43:04;;;;;;;3.78;1.63;;;;;;;;;;10402433;28;20528;-74
2023/12/20 04:48:08;;;;;;;5.53;1.77;;;;;;;;;;10410211;28;20038;-74
2023/12/20 04:53:11;;;;;;;7.70;1.80;;;;;;;;;;10409835;28;20117;-74
2023/12/20 04:58:16;;;;;;;4.05;1.10;;;;;;;;;;10405633;28;20057;-75
2023/12/20 05:03:19;;;;;;;3.70;1.50;;;;;;;;;;10407121;28;20037;-74
2023/12/20 05:08:22;;;;;;;4.25;1.52;;;;;;;;;;10408656;28;20041;-74
2023/12/20 05:13:27;;;;;;;4.75;1.30;;;;;;;;;;10408939;28;20773;-74
2023/12/20 05:18:36;;;;;;;5.47;1.60;;;;;;;;;;10405687;28;20064;-74
2023/12/20 05:23:39;;;;;;;2.70;1.00;;;;;;;;;;10404923;28;20908;-74
2023/12/20 05:28:44;;;;;;;6.40;1.70;;;;;;;;;;10404635;28;20540;-74
2023/12/20 05:33:48;;;;;;;3.33;1.30;;;;;;;;;;10405043;28;20406;-74
2023/12/20 05:38:51;;;;;;;7.97;2.10;;;;;;;;;;10400959;28;20463;-75
2023/12/20 05:43:57;;;;;;;3.47;1.33;;;;;;;;;;10403108;28;20057;-74
2023/12/20 05:49:00;;;;;;;;;;;;;;;;;;10405152;28;20053;-74
2023/12/20 05:54:04;;;;;;;3.50;1.30;;;;;;;;;;10406355;28;19927;-74
2023/12/20 05:59:09;;;;;;;4.72;1.60;;;;;;;;;;10448512;28;20037;-74
2023/12/20 06:04:12;;;;;;;6.45;1.42;;;;;;;;;;10442488;28;20521;-74
2023/12/20 06:09:16;;;;;;;4.78;1.20;;;;;;;;;;10454797;28;20383;-74
2023/12/20 06:14:20;;;;;;;5.65;1.33;;;;;;;;;;10454816;28;20757;-75
2023/12/20 06:19:23;;;;;;;6.93;1.73;;;;;;;;;;10435419;28;20051;-75
2023/12/20 06:24:28;;;;;;;5.00;1.33;;;;;;;;;;10454287;28;20738;-74
2023/12/20 06:29:32;;;;;;;4.72;2.15;;;;;;;;;;10452627;28;20086;-74
2023/12/20 06:34:36;;;;;;;4.78;1.45;;;;;;;;;;10448701;28;20056;-75
2023/12/20 06:39:39;;;;;;;3.90;1.40;;;;;;;;;;10455893;28;20129;-74
2023/12/20 06:44:43;;;;;;;4.18;1.45;;;;;;;;;;10430226;28;20040;-74
2023/12/20 06:49:47;;;;;;;4.43;1.30;;;;;;;;;;10455693;28;20406;-74
2023/12/20 06:54:50;;;;;;;3.30;1.25;;;;;;;;;;10457818;28;20052;-74
2023/12/20 06:59:55;;;;;;;3.17;1.20;;;;;;;;;;10445463;28;20128;-75
2023/12/20 07:04:58;;;;;;;3.90;1.63;;;;;;;;;;10447916;28;20056;-75
2023/12/20 07:10:02;;;;;;;5.05;1.55;;;;;;;;;;10447433;28;20048;-74
2023/12/20 07:15:08;;;;;;;5.03;1.45;;;;;;;;;;10443743;28;20060;-74
2023/12/20 07:20:12;;;;;;;7.88;2.17;;;;;;;;;;10446916;28;20509;-75
2023/12/20 07:25:16;;;;;;;3.88;1.23;;;;;;;;;;10443304;28;20124;-75
2023/12/20 07:30:20;;;;;;;5.80;1.85;;;;;;;;;;10443841;28;20110;-75
2023/12/20 07:35:25;;;;;;;6.05;1.90;;;;;;;;;;10450087;28;20049;-75
2023/12/20 07:40:28;;;;;;;7.18;1.88;;;;;;;;;;10446967;28;20574;-74
2023/12/20 07:45:33;;;;;;;6.00;1.90;;;;;;;;;;10445999;28;20040;-75
2023/12/20 07:50:36;;;;;;;5.28;1.70;;;;;;;;;;10447979;28;20049;-75
2023/12/20 07:55:40;;;;;;;6.30;1.80;;;;;;;;;;10453757;28;20101;-75
2023/12/20 08:00:45;;;;;;;4.78;1.98;;;;;;;;;;10457537;28;20041;-75
2023/12/20 08:05:48;;;;;;;6.05;1.77;;;;;;;;;;10450279;28;20049;-75
2023/12/20 08:10:51;;;;;;;9.10;2.45;;;;;;;;;;10443490;28;20045;-75
2023/12/20 08:15:57;;;;;;;7.47;1.88;;;;;;;;;;10421673;28;21306;-75
2023/12/20 08:21:01;;;;;;;7.17;1.97;;;;;;;;;;10444356;28;20055;-75
2023/12/20 08:26:06;;;;;;;6.30;2.33;;;;;;;;;;10445256;28;20618;-75
2023/12/20 08:31:16;;;;;;;5.50;2.00;;;;;;;;;;10424718;28;20049;-75
2023/12/20 08:36:23;;;;;;;8.38;2.95;;;;;;;;;;10440452;28;20131;-75
2023/12/20 08:41:26;;;;;;;;;;;;;;;;;;10445625;28;20136;-75
2023/12/20 08:46:31;;;;;;;8.18;2.20;;;;;;;;;;10447256;28;19948;-75
2023/12/20 08:51:34;;;;;;;6.63;2.30;;;;;;;;;;10442965;28;20083;-75
2023/12/20 08:56:37;;;;;;;10.30;2.70;;;;;;;;;;10443649;28;20048;-75
2023/12/20 09:01:42;;;;;;;6.20;2.08;;;;;;;;;;10444628;28;20049;-75
2023/12/20 09:06:45;;;;;;;9.60;2.78;;;;;;;;;;10443381;28;20131;-75
2023/12/20 09:11:51;;;;;;;6.68;1.98;;;;;;;;;;10442870;28;20562;-75
2023/12/20 09:16:56;;;;;;;5.40;2.10;;;;;;;;;;10444566;28;20055;-75
2023/12/20 09:21:59;;;;;;;6.47;2.45;;;;;;;;;;10449563;28;20045;-75
2023/12/20 09:27:02;;;;;;;11.98;3.20;;;;;;;;;;10446724;28;20136;-74
2023/12/20 09:32:07;;;;;;;7.97;2.70;;;;;;;;;;10443241;28;20421;-75
2023/12/20 09:37:11;;;;;;;11.65;3.42;;;;;;;;;;10451728;28;20049;-75
2023/12/20 09:42:22;;;;;;;7.38;2.00;;;;;;;;;;10448313;28;20048;-75
2023/12/20 09:47:27;;;;;;;9.57;2.47;;;;;;;;;;10446257;28;20052;-75
2023/12/20 09:52:31;;;;;;;6.28;2.17;;;;;;;;;;10446981;28;20247;-75
2023/12/20 09:57:35;;;;;;;10.45;2.40;;;;;;;;;;10449209;28;20221;-75
2023/12/20 10:02:42;;;;;;;8.07;2.45;;;;;;;;;;10451224;28;20525;-75
2023/12/20 10:07:45;;;;;;;6.88;2.55;;;;;;;;;;10449686;28;20053;-75
2023/12/20 10:13:03;;;;;;;10.05;3.22;;;;;;;;;;10449797;28;20140;-75
2023/12/20 10:18:08;;;;;;;8.63;2.83;;;;;;;;;;10446692;28;20180;-75
2023/12/20 10:23:13;;;;;;;7.13;1.90;;;;;;;;;;10448487;28;20653;-75
2023/12/20 10:28:19;;;;;;;6.88;2.28;;;;;;;;;;10443916;28;20051;-75
2023/12/20 10:33:26;;;;;;;6.93;2.65;;;;;;;;;;10444086;28;20605;-75
2023/12/20 10:38:30;;;;;;;9.10;2.58;;;;;;;;;;10448840;28;20044;-75
2023/12/20 10:43:35;;;;;;;6.82;2.28;;;;;;;;;;10448916;28;20563;-75
2023/12/20 10:48:41;;;;;;;9.25;2.38;;;;;;;;;;10448373;28;20478;-75
2023/12/20 10:53:45;;;;;;;13.85;2.90;;;;;;;;;;10447469;28;20050;-75
2023/12/20 10:58:50;;;;;;;10.38;2.58;;;;;;;;;;10428847;28;20040;-75
2023/12/20 11:03:55;;;;;;;9.30;2.70;;;;;;;;;;10446846;28;20041;-75
2023/12/20 11:09:10;;;;;;;6.47;2.67;;;;;;;;;;10447563;28;20072;-75
2023/12/20 11:14:19;;;;;;;8.80;2.55;;;;;;;;;;10441170;28;20057;-75
2023/12/20 11:19:24;;;;;;;8.35;2.63;;;;;;;;;;10445379;28;20048;-75
2023/12/20 11:24:27;;;;;;;7.47;2.20;;;;;;;;;;10419713;28;20056;-75
2023/12/20 11:29:31;;;;;;;13.35;2.70;;;;;;;;;;10439978;28;20049;-75
2023/12/20 11:34:37;;;;;;;7.07;2.50;;;;;;;;;;10438168;28;21442;-75
2023/12/20 11:39:40;;;;;;;9.43;2.42;;;;;;;;;;10438518;28;20061;-75
2023/12/20 11:44:44;;;;;;;11.57;2.88;;;;;;;;;;10444080;28;20036;-75
2023/12/20 11:49:51;;;;;;;9.73;2.70;;;;;;;;;;10441650;28;20045;-75
2023/12/20 11:54:54;;;;;;;9.27;2.22;;;;;;;;;;10458299;23;20048;-74
2023/12/20 11:59:58;;;;;;;7.28;2.20;;;;;;;;;;10430237;28;20045;-74
2023/12/20 12:05:05;;;;;;;3.20;1.80;;;;;;;;;;10428071;28;20056;-73
2023/12/20 12:10:09;;;;;;;8.88;2.80;;;;;;;;;;10433324;28;20069;-73
2023/12/20 12:15:12;;;;;;;8.77;2.53;;;;;;;;;;10422017;28;20038;-73
2023/12/20 12:20:21;;;;;;;9.50;2.30;;;;;;;;;;10421877;28;20049;-73
2023/12/20 12:25:24;;;;;;;8.15;2.67;;;;;;;;;;10441036;28;20128;-73
2023/12/20 12:30:28;;;;;;;8.00;2.90;;;;;;;;;;10434149;28;20059;-73
2023/12/20 12:35:36;;;;;;;12.93;3.25;;;;;;;;;;10432493;28;20051;-73
2023/12/20 12:40:39;;;;;;;8.57;2.80;;;;;;;;;;10435700;28;20045;-73
2023/12/20 12:45:43;;;;;;;10.18;3.25;;;;;;;;;;10424855;28;20087;-73
2023/12/20 12:50:48;;;;;;;8.30;2.55;;;;;;;;;;10430396;28;20136;-73
2023/12/20 12:55:51;;;;;;;10.35;2.70;;;;;;;;;;10434430;28;20076;-73
2023/12/20 13:00:55;;;;;;;7.38;2.47;;;;;;;;;;10434216;28;20040;-73
2023/12/20 13:06:00;;;;;;;12.20;2.88;;;;;;;;;;10439733;28;20041;-73
2023/12/20 13:11:04;;;;;;;6.50;2.53;;;;;;;;;;10446629;28;20939;-73
2023/12/20 13:16:07;;;;;;;9.27;3.30;;;;;;;;;;10447892;28;20119;-73
2023/12/20 13:21:12;;;;;;;8.70;2.80;;;;;;;;;;10445593;28;20532;-73
2023/12/20 13:26:15;;;;;;;12.65;2.60;;;;;;;;;;10432980;28;20030;-73
2023/12/20 13:31:20;;;;;;;8.55;2.70;;;;;;;;;;10439675;28;20385;-73
2023/12/20 13:36:25;;;;;;;12.43;3.33;;;;;;;;;;10443932;28;20041;-73
2023/12/20 13:41:28;;;;;;;6.32;2.40;;;;;;;;;;10439561;28;20041;-74
2023/12/20 13:46:31;;;;;;;5.03;2.15;;;;;;;;;;10432867;28;20045;-73
2023/12/20 13:51:36;;;;;;;11.13;2.13;;;;;;;;;;10444862;28;20152;-73
2023/12/20 13:56:39;;;;;;;10.35;2.50;;;;;;;;;;10430712;28;20449;-73
2023/12/20 14:01:45;;;;;;;8.60;2.05;;;;;;;;;;10438871;28;20076;-73
2023/12/20 14:06:50;;;;;;;8.43;1.92;;;;;;;;;;10435061;28;20112;-73
2023/12/20 14:11:54;;;;;;;6.45;1.70;;;;;;;;;;10428104;28;20479;-73
2023/12/20 14:16:57;;;;;;;5.57;1.73;;;;;;;;;;10437406;28;20045;-73
2023/12/20 14:22:04;;;;;;;9.00;2.15;;;;;;;;;;10433974;28;20053;-73
2023/12/20 14:27:09;;;;;;;;;;;;;;;;;;10425410;28;20045;-73
2023/12/20 14:32:13;;;;;;;5.05;1.80;;;;;;;;;;10437872;28;19921;-73
2023/12/20 14:37:18;;;;;;;5.43;1.83;;;;;;;;;;10431762;28;20406;-73
2023/12/20 14:42:22;;;;;;;4.22;1.60;;;;;;;;;;10433212;28;20034;-73
2023/12/20 14:47:25;;;;;;;10.00;2.13;;;;;;;;;;10448516;28;20048;-73
2023/12/20 14:52:30;;;;;;;8.50;1.50;;;;;;;;;;10440646;28;20041;-73
2023/12/20 14:57:33;;;;;;;7.03;1.50;;;;;;;;;;10431127;28;20406;-73
2023/12/20 15:02:37;;;;;;;6.35;2.00;;;;;;;;;;10430408;28;20136;-73
2023/12/20 15:07:41;;;;;;;5.43;1.58;;;;;;;;;;10439651;28;20044;-73
2023/12/20 15:12:45;;;;;;;6.47;2.10;;;;;;;;;;10428163;28;20059;-73
2023/12/20 15:17:48;;;;;;;8.43;1.80;;;;;;;;;;10443437;28;20083;-73
2023/12/20 15:22:54;;;;;;;7.15;2.08;;;;;;;;;;10437206;28;20051;-73
2023/12/20 15:27:58;;;;;;;6.43;2.17;;;;;;;;;;10438128;28;20045;-73
2023/12/20 15:33:02;;;;;;;6.63;1.80;;;;;;;;;;10445615;28;20063;-74
2023/12/20 15:38:08;;;;;;;7.53;1.87;;;;;;;;;;10438646;28;20048;-73
2023/12/20 15:43:11;;;;;;;6.25;1.60;;;;;;;;;;10427752;28;20552;-74
2023/12/20 15:48:18;;;;;;;4.25;1.70;;;;;;;;;;10430120;28;20048;-73
2023/12/20 15:53:22;;;;;;;9.95;2.63;;;;;;;;;;10428689;28;20064;-73
2023/12/20 15:58:26;;;;;;;8.32;2.22;;;;;;;;;;10438113;28;20049;-73
2023/12/20 16:03:29;;;;;;;5.30;2.03;;;;;;;;;;10440430;28;20049;-73
2023/12/20 16:08:36;;;;;;;8.77;2.47;;;;;;;;;;10438378;28;20044;-73
2023/12/20 16:13:39;;;;;;;5.13;1.63;;;;;;;;;;10436101;28;20033;-73
2023/12/20 16:18:43;;;;;;;5.72;1.50;;;;;;;;;;10412247;28;20112;-73
2023/12/20 16:23:47;;;;;;;8.48;2.00;;;;;;;;;;10423981;28;20045;-73
2023/12/20 16:28:51;;;;;;;3.53;1.58;;;;;;;;;;10426408;28;20482;-73
2023/12/20 16:33:55;;;;;;;5.35;2.10;;;;;;;;;;10446019;28;20102;-73
2023/12/20 16:38:59;;;;;;;3.97;1.60;;;;;;;;;;10447577;28;20041;-73
2023/12/20 16:44:02;;;;;;;4.80;1.55;;;;;;;;;;10452687;28;20055;-73
2023/12/20 16:49:06;;;;;;;5.13;1.95;;;;;;;;;;10451161;28;20413;-73
2023/12/20 16:54:11;;;;;;;6.47;2.20;;;;;;;;;;10448521;28;20156;-73
2023/12/20 16:59:14;;;;;;;5.78;1.75;;;;;;;;;;10445989;28;20044;-73
2023/12/20 17:04:18;;;;;;;4.55;1.65;;;;;;;;;;10450100;28;20051;-73
2023/12/20 17:09:22;;;;;;;4.47;1.45;;;;;;;;;;10453088;28;20476;-73
2023/12/20 17:14:26;;;;;;;5.10;1.77;;;;;;;;;;10457212;28;20044;-73
2023/12/20 17:19:31;;;;;;;6.85;2.28;;;;;;;;;;10450940;28;20143;-73
2023/12/20 17:24:36;;;;;;;4.30;1.50;;;;;;;;;;10444153;28;20060;-73
2023/12/20 17:29:39;;;;;;;5.65;1.77;;;;;;;;;;10449611;28;20048;-73
2023/12/20 17:34:43;;;;;;;5.43;1.77;;;;;;;;;;10453097;28;20225;-73
2023/12/20 17:39:47;;;;;;;3.88;1.20;;;;;;;;;;10445120;28;20128;-73
2023/12/20 17:44:51;;;;;;;6.70;2.20;;;;;;;;;;10442423;28;20716;-73
2023/12/20 17:49:54;;;;;;;3.92;1.90;;;;;;;;;;10443741;28;20057;-73
2023/12/20 17:54:58;;;;;;;5.10;1.73;;;;;;;;;;10432182;28;20139;-73
2023/12/20 18:00:13;;;;;;;5.38;1.85;;;;;;;;;;10435310;28;20128;-73
2023/12/20 18:05:17;;;;;;;7.57;1.77;;;;;;;;;;10434941;28;20041;-73
2023/12/20 18:10:21;;;;;;;3.47;1.60;;;;;;;;;;10428577;28;20072;-73
2023/12/20 18:15:25;;;;;;;4.15;1.35;;;;;;;;;;10437746;28;20044;-73
2023/12/20 18:20:28;;;;;;;4.55;1.60;;;;;;;;;;10425258;28;20045;-73
2023/12/20 18:25:33;;;;;;;4.53;2.15;;;;;;;;;;10427867;28;20124;-73
2023/12/20 18:30:36;;;;;;;2.08;1.17;;;;;;;;;;10439496;28;20080;-74
2023/12/20 18:35:43;;;;;;;3.45;1.80;;;;;;;;;;10416715;28;20041;-73
2023/12/20 18:40:48;;;;;;;3.45;1.40;;;;;;;;;;10436048;28;20565;-73
2023/12/20 18:45:59;;;;;;;2.22;1.17;;;;;;;;;;10438807;28;20498;-73
2023/12/20 18:51:03;;;;;;;5.40;1.30;;;;;;;;;;10432486;28;20116;-73
2023/12/20 18:56:08;;;;;;;4.15;1.33;;;;;;;;;;10441038;28;20474;-73
2023/12/20 19:01:11;;;;;;;2.78;1.45;;;;;;;;;;10427277;28;20050;-73
2023/12/20 19:06:15;;;;;;;3.60;1.15;;;;;;;;;;10432017;28;20491;-74
2023/12/20 19:11:20;;;;;;;4.15;1.08;;;;;;;;;;10428984;28;20088;-73
2023/12/20 19:16:23;;;;;;;7.07;1.65;;;;;;;;;;10435474;28;20061;-73
2023/12/20 19:21:27;;;;;;;2.85;1.10;;;;;;;;;;10419940;28;20037;-73
2023/12/20 19:26:31;;;;;;;1.88;0.90;;;;;;;;;;10429285;28;20049;-73
2023/12/20 19:31:35;;;;;;;3.95;1.40;;;;;;;;;;10429366;28;20518;-73
2023/12/20 19:36:38;;;;;;;3.38;1.30;;;;;;;;;;10435381;28;20059;-73
2023/12/20 19:41:42;;;;;;;3.95;1.40;;;;;;;;;;10417981;28;20045;-73
2023/12/20 19:46:47;;;;;;;4.68;1.35;;;;;;;;;;10426284;28;20087;-73
2023/12/20 19:51:51;;;;;;;2.40;1.10;;;;;;;;;;10429455;28;20159;-73
2023/12/20 19:56:56;;;;;;;4.55;1.25;;;;;;;;;;10433902;28;20108;-73
2023/12/20 20:02:01;;;;;;;3.65;1.40;;;;;;;;;;10432708;28;20586;-73
2023/12/20 20:07:09;;;;;;;4.65;1.42;;;;;;;;;;10436809;28;20131;-73
2023/12/20 20:12:14;;;;;;;2.92;1.40;;;;;;;;;;10429393;28;20041;-73
2023/12/20 20:17:17;;;;;;;3.47;1.50;;;;;;;;;;10435311;28;20053;-73
2023/12/20 20:22:23;;;;;;;3.75;1.20;;;;;;;;;;10433662;28;20356;-73
2023/12/20 20:27:28;;;;;;;5.07;1.87;;;;;;;;;;10429063;28;20048;-73
2023/12/20 20:32:31;;;;;;;4.05;1.25;;;;;;;;;;10410512;28;20125;-73
2023/12/20 20:37:34;;;;;;;2.72;1.30;;;;;;;;;;10429896;28;20037;-73
2023/12/20 20:42:39;;;;;;;2.50;1.50;;;;;;;;;;10432362;28;20048;-73
2023/12/20 20:47:43;;;;;;;2.47;1.30;;;;;;;;;;10430927;28;20083;-73
2023/12/20 20:52:46;;;;;;;4.10;1.52;;;;;;;;;;10431337;28;20061;-73
2023/12/20 20:57:51;;;;;;;4.65;1.23;;;;;;;;;;10432102;28;20112;-73
2023/12/20 21:02:54;;;;;;;5.50;2.05;;;;;;;;;;10429569;28;20699;-73
2023/12/20 21:07:58;;;;;;;3.92;1.77;;;;;;;;;;10430518;28;20129;-73
2023/12/20 21:13:02;;;;;;;2.47;1.02;;;;;;;;;;10433089;28;20056;-73
2023/12/20 21:18:06;;;;;;;4.13;1.20;;;;;;;;;;10432986;28;20233;-73
2023/12/20 21:23:09;;;;;;;3.80;1.02;;;;;;;;;;10440859;28;20090;-74
2023/12/20 21:28:14;;;;;;;3.03;1.00;;;;;;;;;;10434648;28;20041;-73
2023/12/20 21:33:18;;;;;;;3.20;0.98;;;;;;;;;;10438461;28;20544;-73
2023/12/20 21:38:21;;;;;;;5.45;1.52;;;;;;;;;;10424598;28;20430;-73
2023/12/20 21:43:26;;;;;;;3.47;1.30;;;;;;;;;;10436451;28;20037;-74
2023/12/20 21:48:29;;;;;;;2.40;1.08;;;;;;;;;;10437247;28;20044;-74
2023/12/20 21:53:32;;;;;;;2.55;1.10;;;;;;;;;;10440861;28;20502;-74
2023/12/20 21:58:37;;;;;;;1.50;0.82;;;;;;;;;;10434563;28;20064;-74
2023/12/20 22:03:41;;;;;;;1.05;0.85;;;;;;;;;;10442489;28;20049;-73
2023/12/20 22:08:44;;;;;;;3.00;0.90;;;;;;;;;;10441591;28;20051;-73
2023/12/20 22:13:48;;;;;;;2.08;0.90;;;;;;;;;;10432675;28;20037;-73
2023/12/20 22:18:52;;;;;;;0.90;0.68;;;;;;;;;;10439450;28;20053;-73
2023/12/20 22:23:55;;;;;;;1.75;0.70;;;;;;;;;;10419059;28;20136;-73
2023/12/20 22:29:00;;;;;;;1.83;0.60;;;;;;;;;;10434840;28;20057;-74
2023/12/20 22:34:03;;;;;;;1.30;0.70;;;;;;;;;;10444538;28;20055;-73
2023/12/20 22:39:06;;;;;;;0.93;0.70;;;;;;;;;;10441199;28;20826;-74
2023/12/20 22:44:11;;;;;;;0.60;0.50;;;;;;;;;;10437274;28;20410;-74
2023/12/20 22:49:14;;;;;;;1.55;0.63;;;;;;;;;;10433204;28;20063;-74
2023/12/20 22:54:18;;;;;;;1.25;0.80;;;;;;;;;;10430375;28;20376;-74
2023/12/20 22:59:23;;;;;;;0.80;0.65;;;;;;;;;;10427162;28;20052;-73
2023/12/20 23:04:26;;;;;;;1.80;0.85;;;;;;;;;;10436445;28;20440;-74
2023/12/20 23:09:29;;;;;;;0.57;0.50;;;;;;;;;;10438118;28;20053;-73
2023/12/20 23:14:34;;;;;;;2.08;0.70;;;;;;;;;;10439996;28;20041;-74
2023/12/20 23:19:37;;;;;;;0.40;0.40;;;;;;;;;;10439257;28;20033;-74
2023/12/20 23:24:41;;;;;;;0.73;0.63;;;;;;;;;;10434985;28;20045;-74
2023/12/20 23:29:46;;;;;;;0.55;0.50;;;;;;;;;;10418990;28;20052;-74
2023/12/20 23:34:50;;;;;;;1.35;0.60;;;;;;;;;;10437073;28;20486;-74
2023/12/20 23:39:59;;;;;;;0.90;0.60;;;;;;;;;;10443168;28;20187;-74
2023/12/20 23:45:04;;;;;;;1.00;0.60;;;;;;;;;;10440311;28;20048;-74
2023/12/20 23:50:08;;;;;;;0.60;0.60;;;;;;;;;;10437231;28;20066;-74
2023/12/20 23:55:12;;;;;;;2.05;0.93;;;;;;;;;;10449243;23;20021;-76
